Raleigh, NC (27615)

8:10 AM EST on January 26, 2015 (GMT -0500)
Greystone, Windsor Woods | Change Station
CLOSE
Current Station
Personal Weather Station
Location: Raleigh, NC
Elevation: 397 ft
Nearby Weather Stations

Elev 397 ft 35.89 °N, 78.66 °W | Updated 8 minutes ago

Rain
Rain
40.3 °F
Feels Like 40 °F
N
0.0
Wind Variable Wind from NNW
Gusts 1.0 mph

Today
High -- | Low -- °F
--% Chance of Precip.
Yesterday
High -- | Low -- °F
Precip. -- in
7:19 AM 5:35 PM
Waxing Crescent, 43% visible
Pressure 29.68 in
Visibility 4.0 miles
Clouds Mostly Cloudy 4200 ft
Overcast 5000 ft
Windchill 40 °F
Dew Point 39 °F
Humidity 96%
Rainfall 0.09 in
Snow Depth Not available.
UV 0 out of 12
Pollen .40 out of 12
Air Quality Not available.
Flu Activity Not available.
METAR KRDU 261251Z 07003KT 4SM -RA BR BKN042 OVC050 04/03 A2968 RMK AO2 SLP051 P0012 T00440028 $

More Conditions Fewer Conditions

Pressure 29.68 in
Visibility 4.0 miles
Clouds Mostly Cloudy 4200 ft
Overcast 5000 ft
Windchill 40 °F
Dew Point 39 °F
Humidity 96%
Rainfall 0.09 in
Snow Depth Not available.
UV 0 out of 12
Pollen .40 out of 12
Air Quality Not available.
Flu Activity Not available.
METAR KRDU 261251Z 07003KT 4SM -RA BR BKN042 OVC050 04/03 A2968 RMK AO2 SLP051 P0012 T00440028 $

More Conditions Fewer Conditions

10-Day Weather Forecast

Almanac

Astronomy

Jan. 26, 2015 Rise Set
Actual Time
Civil Twilight
Nautical Twilight
Astronomical Twilight
Moon
Length of Visible Light
Length of Day
Tomorrow will be .
, % of the Moon is Illuminated

Today's Extremes

State Highs State Lows

Community

WunderPhotos

Upload Photos

1,790,192 photos uploaded!

WunderBlogs® & News

Nearby

Air Quality

  Air Quality AQ Index Pollutant
Not available.

Snow Depth

Station Depth Elevation

Earthquake Activity

City Distance Mag. Time & Date
Minimum magnitude displayed is 2.5.

Coastal Water Temperatures

Place Temperature

Nearby Weather Stations